Time;durP1;ratioP1;P1;durP2;ratioP2;P2;SDS_P1;SDS_P2;PMS_P1;PMS_P2;Temp;Humidity;BMP_temperature;BMP_pressure;BME280_temperature;BME280_humidity;BME280_pressure;Samples;Min_cycle;Max_cycle;Signal;HPM_P1;HPM_P2
2021/09/28 00:37:12;;;;;;;3.20;2.60;;;;;;;9.62;69.00;100786.06;111964;1219;93480;-74
2021/09/28 00:45:23;;;;;;;3.20;2.70;;;;;;;9.52;69.41;100787.13;111213;1225;108497;-74
2021/09/28 00:53:41;;;;;;;3.10;2.80;;;;;;;9.42;69.56;100787.66;111337;1222;94893;-75
2021/09/28 00:57:40;;;;;;;3.20;2.50;;;;;;;9.41;69.63;100784.02;111955;1211;637062;-75
2021/09/28 01:01:49;;;;;;;4.00;3.10;;;;;;;9.38;69.45;100784.10;113226;1202;93805;-75
2021/09/28 01:10:07;;;;;;;4.00;2.80;;;;;;;9.29;69.68;100777.82;112938;1203;108239;-74
2021/09/28 01:14:07;;;;;;;4.40;2.40;;;;;;;9.27;69.82;100776.83;112588;1206;106325;-75
2021/09/28 01:18:18;;;;;;;4.10;2.70;;;;;;;9.23;70.00;100770.67;112529;1206;108585;-74
2021/09/28 01:22:41;;;;;;;4.40;2.50;;;;;;;9.21;70.16;100776.09;112370;1209;93940;-74
2021/09/28 01:26:48;;;;;;;2.90;2.50;;;;;;;9.15;70.36;100780.02;112355;1209;94176;-75
2021/09/28 01:39:06;;;;;;;3.60;2.20;;;;;;;9.07;70.54;100773.03;112128;1214;108032;-75
2021/09/28 01:43:11;;;;;;;3.80;2.20;;;;;;;9.07;70.49;100766.27;112145;1212;95424;-74
2021/09/28 01:55:31;;;;;;;2.70;2.40;;;;;;;9.09;70.58;100769.16;111907;1219;107075;-74
2021/09/28 02:03:45;;;;;;;3.10;2.30;;;;;;;9.15;70.20;100765.95;111975;1209;635767;-74
2021/09/28 02:07:54;;;;;;;2.40;2.10;;;;;;;9.13;70.19;100767.89;113198;1200;93977;-74
2021/09/28 02:12:03;;;;;;;3.70;2.40;;;;;;;9.14;70.10;100765.80;112906;1203;93847;-74
2021/09/28 02:20:22;;;;;;;3.20;2.40;;;;;;;9.07;70.37;100759.31;112359;1212;106936;-75
2021/09/28 02:33:07;;;;;;;4.80;2.50;;;;;;;9.02;70.29;100758.90;111783;1220;94036;-75
2021/09/28 02:37:13;;;;;;;4.00;2.30;;;;;;;8.99;70.16;100760.86;111397;1223;108899;-74
2021/09/28 02:44:46;;;;;;;4.20;2.50;;;;;;;8.92;70.26;100763.40;111973;1209;636710;-74
2021/09/28 02:48:54;;;;;;;2.50;2.00;;;;;;;8.85;70.28;100760.23;113269;1200;93840;-74
2021/09/28 02:53:03;;;;;;;3.50;2.60;;;;;;;8.84;70.21;100766.85;112866;1205;94052;-74
2021/09/28 02:57:12;;;;;;;2.50;2.20;;;;;;;8.81;70.32;100768.63;112418;1209;107676;-74
2021/09/28 03:01:47;;;;;;;6.40;2.50;;;;;;;8.80;70.31;100766.21;112314;1211;107447;-74
2021/09/28 03:05:53;;;;;;;3.80;2.60;;;;;;;8.82;70.41;100766.02;112060;1216;109892;-74
2021/09/28 03:09:59;;;;;;;5.50;2.80;;;;;;;8.82;70.15;100763.41;111892;1219;94051;-73
2021/09/28 03:25:45;;;;;;;3.10;2.30;;;;;;;8.75;70.36;100756.75;111944;1209;635577;-74
2021/09/28 03:29:53;;;;;;;7.20;2.50;;;;;;;8.67;70.32;100756.73;113220;1200;94338;-75
2021/09/28 03:38:10;;;;;;;4.70;2.60;;;;;;;8.53;70.63;100759.19;112599;1207;107707;-74
2021/09/28 03:42:19;;;;;;;4.50;2.90;;;;;;;8.51;70.80;100761.14;112359;1212;107287;-74
2021/09/28 03:46:53;;;;;;;3.90;2.70;;;;;;;8.45;70.89;100756.55;112228;1212;107625;-75
2021/09/28 03:55:05;;;;;;;4.00;2.80;;;;;;;8.36;71.34;100758.06;111581;1222;94008;-75
2021/09/28 03:59:10;;;;;;;5.20;2.40;;;;;;;8.29;71.41;100753.12;111369;1224;109143;-74
2021/09/28 04:02:10;;;;;;;;;;;;;;;;;;;;;
2021/09/28 04:06:24;;;;;;;3.60;2.60;;;;;;;8.20;71.96;100758.95;111941;1212;635498;-74
2021/09/28 04:14:45;;;;;;;3.90;2.80;;;;;;;8.01;72.17;100760.95;113146;1201;95137;-74
2021/09/28 04:18:51;;;;;;;3.70;2.50;;;;;;;7.98;72.49;100763.95;112991;1202;107124;-75
2021/09/28 04:23:02;;;;;;;3.60;2.80;;;;;;;7.92;72.23;100767.49;112876;1204;106233;-75
2021/09/28 04:27:36;;;;;;;3.60;2.70;;;;;;;7.87;72.43;100769.43;112535;1206;108607;-74
2021/09/28 04:31:41;;;;;;;3.50;2.80;;;;;;;7.87;72.37;100771.35;112278;1211;94357;-73
2021/09/28 04:35:48;;;;;;;6.80;2.70;;;;;;;7.86;72.41;100773.95;112131;1215;94047;-74
2021/09/28 04:39:18;;;;;;;;;;;;;;;;;;;;;
2021/09/28 04:43:49;;;;;;;4.10;3.10;;;;;;;7.88;72.39;100777.55;111927;1218;107113;-74
2021/09/28 04:52:00;;;;;;;5.00;3.20;;;;;;;7.98;72.20;100788.52;111863;1219;93990;-74
2021/09/28 04:56:06;;;;;;;3.80;2.90;;;;;;;8.11;72.03;100793.20;111832;1219;94864;-74
2021/09/28 05:00:01;;;;;;;3.70;2.90;;;;;;;8.23;71.77;100801.52;111635;1219;108514;-74
2021/09/28 05:04:06;;;;;;;3.40;3.00;;;;;;;8.41;71.61;100807.38;111730;1220;106253;-74
2021/09/28 05:12:18;;;;;;;6.10;2.60;;;;;;;8.82;70.58;100811.25;111774;1219;94892;-74
2021/09/28 05:16:24;;;;;;;4.50;3.10;;;;;;;9.11;69.85;100813.55;111652;1221;95071;-74
2021/09/28 05:23:58;;;;;;;4.10;2.70;;;;;;;9.73;68.39;100815.54;111958;1209;635695;-74
2021/09/28 05:28:07;;;;;;;6.50;2.80;;;;;;;10.29;67.23;100816.99;113282;1199;93947;-75
2021/09/28 05:32:15;;;;;;;3.60;3.00;;;;;;;11.23;65.14;100825.91;112974;1203;93834;-74
2021/09/28 05:36:02;;;;;;;3.20;2.80;;;;;;;12.83;62.41;100825.83;112799;1206;106719;-75
2021/09/28 05:39:58;;;;;;;4.70;2.60;;;;;;;14.62;59.33;100824.33;112762;1206;107319;-75
2021/09/28 05:43:59;;;;;;;4.80;2.50;;;;;;;16.32;54.72;100826.46;112181;1214;107943;-76
2021/09/28 05:47:52;;;;;;;6.60;3.50;;;;;;;18.12;51.92;100826.17;111955;1218;93984;-75
2021/09/28 05:55:36;;;;;;;;;;;;;;;;;;;;;
2021/09/28 05:58:13;;;;;;;2.20;1.90;;;;;;;21.13;46.04;100830.27;111586;1222;107253;-74
2021/09/28 06:01:16;;;;;;;4.40;2.40;;;;;;;22.13;43.97;100828.69;111636;1221;109631;-74
2021/09/28 06:04:54;;;;;;;6.50;3.00;;;;;;;22.90;41.64;100832.09;111700;1218;94875;-74
2021/09/28 06:08:11;;;;;;;4.30;1.90;;;;;;;23.28;40.16;100833.54;111952;1216;95060;-76
2021/09/28 06:11:34;;;;;;;;;;;;;;;;;;;;;
2021/09/28 06:15:29;;;;;;;2.60;1.90;;;;;;;24.87;36.59;100839.95;112177;1212;107271;-74
2021/09/28 06:19:18;;;;;;;4.00;2.10;;;;;;;24.89;34.46;100843.50;112156;1214;109809;-75
2021/09/28 06:23:07;;;;;;;6.40;1.90;;;;;;;24.79;34.08;100851.35;112274;1212;95024;-75
2021/09/28 06:30:26;;;;;;;5.80;2.10;;;;;;;25.49;34.40;100859.01;112881;1203;108611;-75
2021/09/28 06:33:33;;;;;;;;;;;;;;;;;;;;;
2021/09/28 06:36:49;;;;;;;9.20;2.00;;;;;;;26.52;31.23;100858.25;113247;1200;106773;-75
2021/09/28 06:40:12;;;;;;;4.00;1.80;;;;;;;26.80;31.25;100863.52;113088;1200;94838;-75
2021/09/28 06:43:30;;;;;;;4.30;1.90;;;;;;;27.23;29.76;100860.02;113113;1201;94819;-74
2021/09/28 06:46:56;;;;;;;;;;;;;;;;;;;;;
2021/09/28 06:50:09;;;;;;;;;;;;;;;;;;;;;
2021/09/28 06:53:28;;;;;;;;;;;;;;;;;;;;;
2021/09/28 06:57:05;;;;;;;6.40;1.90;;;;;;;27.41;27.82;100867.33;113191;1200;95308;-75
2021/09/28 07:00:53;;;;;;;6.20;2.00;;;;;;;27.48;29.04;100863.89;113257;1200;94950;-75
2021/09/28 07:03:44;;;;;;;5.10;2.00;;;;;;;28.06;28.69;100867.34;113200;1200;108929;-74
2021/09/28 07:07:16;;;;;;;;;;;;;;;;;;;;;
2021/09/28 07:10:15;;;;;;;6.30;2.10;;;;;;;27.11;27.36;100873.75;113175;1200;108499;-74
2021/09/28 07:13:35;;;;;;;3.70;1.80;;;;;;;27.20;27.02;100881.33;113241;1200;94940;-74
2021/09/28 07:16:46;;;;;;;10.20;2.70;;;;;;;27.09;28.05;100884.28;113217;1200;94820;-74
2021/09/28 07:20:14;;;;;;;2.90;1.60;;;;;;;27.64;28.81;100887.57;113116;1196;109878;-74
2021/09/28 07:23:19;;;;;;;5.20;1.80;;;;;;;28.42;27.99;100888.56;113181;1199;107858;-75
2021/09/28 07:26:49;;;;;;;4.50;2.10;;;;;;;28.96;26.55;100890.98;113275;1197;107510;-75
2021/09/28 07:29:40;;;;;;;4.30;1.60;;;;;;;29.14;26.37;100900.35;113159;1198;94966;-74
2021/09/28 07:32:59;;;;;;;2.50;1.80;;;;;;;29.04;25.46;100898.04;113274;1198;94786;-74
2021/09/28 07:36:08;;;;;;;6.80;2.10;;;;;;;28.57;26.07;100896.56;113248;1199;110012;-74
2021/09/28 07:39:14;;;;;;;4.20;1.90;;;;;;;28.92;26.60;100897.80;113148;1198;107666;-75
2021/09/28 07:42:55;;;;;;;15.10;3.00;;;;;;;29.36;26.39;100907.28;113188;1198;107918;-75
2021/09/28 07:46:44;;;;;;;3.20;1.80;;;;;;;29.43;25.38;100904.42;113222;1200;95619;-75
2021/09/28 07:50:09;;;;;;;6.10;2.30;;;;;;;29.52;24.87;100904.08;113128;1200;95029;-75
2021/09/28 07:53:40;;;;;;;9.70;2.30;;;;;;;29.01;24.53;100899.38;113222;1200;109603;-75
2021/09/28 07:56:29;;;;;;;10.60;2.60;;;;;;;28.51;25.61;100903.25;113180;1199;107324;-75
2021/09/28 07:59:51;;;;;;;2.90;2.00;;;;;;;28.56;25.94;100897.86;113195;1200;107502;-75
2021/09/28 08:03:17;;;;;;;6.10;2.20;;;;;;;29.04;25.58;100899.09;113203;1199;95046;-75
2021/09/28 08:06:15;;;;;;;10.30;1.80;;;;;;;29.01;24.31;100903.48;113190;1199;95107;-75
2021/09/28 08:09:14;;;;;;;5.00;1.80;;;;;;;28.40;25.01;100902.69;113168;1199;108745;-75
2021/09/28 08:12:54;;;;;;;7.00;1.90;;;;;;;28.57;25.83;100903.67;113247;1200;106255;-74
2021/09/28 08:16:27;;;;;;;2.40;1.50;;;;;;;28.94;25.63;100902.96;113227;1198;108554;-75
2021/09/28 08:19:29;;;;;;;;;;;;;;;;;;;;;
2021/09/28 08:22:27;;;;;;;4.00;1.30;;;;;;;29.70;24.27;100906.36;113253;1199;94943;-74
2021/09/28 08:25:48;;;;;;;4.00;1.50;;;;;;;29.21;23.78;100910.59;113210;1196;109819;-75
2021/09/28 08:32:34;;;;;;;3.30;1.40;;;;;;;28.36;23.83;100909.70;113995;1192;108689;-74
2021/09/28 08:36:06;;;;;;;;;;;;;;;;;;;;;
2021/09/28 08:39:21;;;;;;;2.60;1.20;;;;;;;27.09;25.29;100917.34;114281;1192;94809;-75
2021/09/28 08:46:37;;;;;;;;;;;;;;;;;;;;;
2021/09/28 08:50:21;;;;;;;;;;;;;;;;;;;;;
2021/09/28 08:54:32;;;;;;;2.80;2.00;;;;;;;24.89;27.56;100923.09;113839;1193;94792;-75
2021/09/28 08:58:37;;;;;;;3.60;1.70;;;;;;;25.03;27.94;100925.31;113308;1196;94905;-75
2021/09/28 09:02:33;;;;;;;3.90;1.30;;;;;;;25.19;27.65;100930.20;113344;1196;109475;-74
2021/09/28 09:11:12;;;;;;;4.40;1.60;;;;;;;24.69;27.76;100924.31;112812;1203;108614;-75
2021/09/28 09:15:11;;;;;;;2.60;1.50;;;;;;;24.35;28.73;100925.29;112315;1205;636875;-74
2021/09/28 09:18:59;;;;;;;6.50;1.80;;;;;;;24.24;28.73;100924.67;113266;1198;93799;-76
2021/09/28 09:22:48;;;;;;;7.30;2.00;;;;;;;24.51;29.00;100922.02;112931;1203;93870;-75
2021/09/28 09:26:18;;;;;;;5.20;1.60;;;;;;;24.59;28.57;100929.69;112924;1203;107443;-75
2021/09/28 09:30:32;;;;;;;5.10;1.40;;;;;;;24.34;28.74;100930.14;112672;1206;107300;-75
2021/09/28 09:33:55;;;;;;;;;;;;;;;;;;;;;
2021/09/28 09:37:46;;;;;;;;;;;;;;;;;;;;;
2021/09/28 09:41:56;;;;;;;6.00;1.70;;;;;;;22.48;30.65;100938.50;112867;1203;94049;-75
2021/09/28 09:49:51;;;;;;;3.00;2.20;;;;;;;21.70;32.10;100948.54;112176;1214;104770;-75
2021/09/28 09:53:48;;;;;;;;;;;;;;;;;;;;;
2021/09/28 09:57:42;;;;;;;;;;;;;;;;;;;;;
2021/09/28 10:01:21;;;;;;;3.60;1.70;;;;;;;21.48;33.43;100940.08;111930;1217;95026;-75
2021/09/28 10:05:05;;;;;;;;;;;;;;;;;;;;;
2021/09/28 10:08:43;;;;;;;;;;;;;;;;;;;;;
2021/09/28 10:13:06;;;;;;;;;;;;;;;;;;;;;
2021/09/28 10:28:03;;;;;;;3.50;1.70;;;;;;;20.15;34.57;100950.48;113945;1195;94201;-75
2021/09/28 10:31:56;;;;;;;6.90;1.40;;;;;;;20.01;34.64;100956.10;113959;1195;107123;-75
2021/09/28 10:35:54;;;;;;;;;;;;;;;;;;;;;
2021/09/28 10:44:39;;;;;;;;;;;;;;;;;;;;;
2021/09/28 10:48:29;;;;;;;8.00;1.70;;;;;;;20.08;35.30;100948.92;113224;1199;94623;-75
2021/09/28 10:52:18;;;;;;;1.90;1.40;;;;;;;19.99;34.70;100954.46;113274;1199;108407;-74
2021/09/28 11:00:21;;;;;;;;;;;;;;;;;;;;;
2021/09/28 11:08:54;;;;;;;4.10;1.30;;;;;;;18.08;37.47;100955.42;112616;1206;94821;-74
2021/09/28 11:13:29;;;;;;;2.20;1.30;;;;;;;17.81;38.44;100960.36;112333;1210;108548;-75
2021/09/28 11:25:52;;;;;;;3.70;2.10;;;;;;;16.96;40.09;100951.84;112172;1211;94820;-75
2021/09/28 11:29:25;;;;;;;;;;;;;;;;;;;;;
2021/09/28 11:38:10;;;;;;;4.00;2.30;;;;;;;16.41;41.75;100950.67;112209;1215;106594;-74
2021/09/28 11:41:47;;;;;;;;;;;;;;;;;;;;;
2021/09/28 11:46:07;;;;;;;3.20;1.90;;;;;;;16.57;41.91;100947.48;111981;1216;95183;-74
2021/09/28 11:50:13;;;;;;;2.40;1.60;;;;;;;16.68;41.93;100953.33;112080;1214;94838;-74
2021/09/28 11:58:25;;;;;;;6.30;3.20;;;;;;;16.93;41.52;100944.77;112225;1211;105073;-75
2021/09/28 12:02:35;;;;;;;4.50;2.90;;;;;;;17.13;41.70;100940.34;112156;1214;109526;-74
2021/09/28 12:10:16;;;;;;;;;;;;;;;;;;;;;
2021/09/28 12:22:21;;;;;;;;;;;;;;;;;;;;;
2021/09/28 12:26:18;;;;;;;2.00;1.60;;;;;;;18.05;39.58;100946.23;111453;1222;95048;-74
2021/09/28 12:38:01;;;;;;;;;;;;;;;;;;;;;
2021/09/28 12:42:16;;;;;;;2.40;1.50;;;;;;;17.75;39.77;100954.46;113024;1201;93875;-74
2021/09/28 12:46:27;;;;;;;3.00;1.80;;;;;;;17.68;39.84;100942.33;113206;1203;94076;-74
2021/09/28 12:50:16;;;;;;;;;;;;;;;17.53;40.28;100952.04;112976;1203;108330;-77
2021/09/28 12:58:31;;;;;;;2.00;1.70;;;;;;;17.49;40.80;100952.76;112775;1205;108615;-73
2021/09/28 13:07:05;;;;;;;;;;;;;;;;;;;;;
2021/09/28 13:15:25;;;;;;;6.50;2.50;;;;;;;17.22;41.70;100946.38;112174;1214;106889;-74
2021/09/28 13:19:30;;;;;;;3.80;2.40;;;;;;;17.26;41.45;100949.19;111979;1216;109766;-75
2021/09/28 13:23:37;;;;;;;6.60;2.00;;;;;;;17.49;41.49;100947.98;111853;1219;94851;-75
2021/09/28 13:27:45;;;;;;;;;;;;;;;;;;;;;
2021/09/28 13:31:44;;;;;;;2.70;2.00;;;;;;;17.70;40.72;100951.59;113368;1197;93925;-74
2021/09/28 13:35:44;;;;;;;;;;;;;;;;;;;;;
2021/09/28 13:39:37;;;;;;;2.30;1.80;;;;;;;18.07;40.79;100948.77;113266;1199;108391;-74
2021/09/28 13:43:44;;;;;;;;;;;;;;;;;;;;;
2021/09/28 13:47:35;;;;;;;2.70;2.10;;;;;;;18.16;40.33;100953.12;112399;1209;108520;-74
2021/09/28 13:51:19;;;;;;;3.20;2.10;;;;;;;18.12;40.33;100944.81;112026;1209;637250;-74
2021/09/28 13:55:28;;;;;;;2.80;2.10;;;;;;;18.18;40.43;100947.16;113615;1194;94039;-74
2021/09/28 13:59:41;;;;;;;3.60;2.30;;;;;;;18.09;39.86;100953.77;113711;1196;94189;-75
2021/09/28 14:07:35;;;;;;;2.30;2.10;;;;;;;17.45;40.28;100951.90;113177;1197;106258;-74
2021/09/28 14:11:44;;;;;;;6.50;2.20;;;;;;;17.12;40.46;100952.65;112837;1203;108605;-74
2021/09/28 14:35:41;;;;;;;;;;;;;;;;;;;;;
2021/09/28 14:47:56;;;;;;;;;;;;;;;;;;;;;
2021/09/28 14:52:07;;;;;;;4.00;2.20;;;;;;;15.95;44.06;100967.63;113292;1197;93888;-75
2021/09/28 14:55:48;;;;;;;3.90;2.20;;;;;;;15.89;44.25;100963.30;113256;1200;94010;-75
2021/09/28 15:04:06;;;;;;;5.10;2.40;;;;;;;15.51;44.90;100963.30;113227;1200;107300;-74
2021/09/28 15:15:51;;;;;;;4.70;2.30;;;;;;;14.97;46.39;100976.33;112861;1204;93947;-75
2021/09/28 15:20:07;;;;;;;2.20;2.00;;;;;;;14.86;46.85;100979.21;112861;1206;94062;-73
2021/09/28 15:24:09;;;;;;;3.40;2.20;;;;;;;14.74;47.17;100977.92;112879;1204;108549;-75
2021/09/28 15:27:54;;;;;;;3.00;2.40;;;;;;;14.62;47.30;100978.39;112589;1207;107384;-74
2021/09/28 15:31:44;;;;;;;;;;;;;;;14.48;47.94;100983.06;112441;1209;107758;-75
2021/09/28 15:35:54;;;;;;;2.90;2.20;;;;;;;14.35;48.26;100987.36;112408;1209;94027;-75
2021/09/28 15:40:37;;;;;;;5.60;2.80;;;;;;;14.26;48.50;100989.27;112200;1212;93873;-75
2021/09/28 15:44:42;;;;;;;5.10;2.70;;;;;;;14.18;48.84;100997.05;111952;1217;107479;-75
2021/09/28 15:48:48;;;;;;;9.00;2.90;;;;;;;14.10;48.98;101001.38;111899;1219;109139;-75
2021/09/28 15:52:40;;;;;;;;;;;;;;;;;;;;;
2021/09/28 16:12:35;;;;;;;7.20;3.70;;;;;;;13.69;50.39;101019.39;111906;1209;635272;-74
2021/09/28 16:20:52;;;;;;;6.10;2.50;;;;;;;13.53;50.87;101021.64;113241;1200;93899;-74
2021/09/28 16:24:40;;;;;;;7.60;3.00;;;;;;;13.47;50.96;101025.50;113004;1203;107854;-74
2021/09/28 16:28:39;;;;;;;;;;;;;;;;;;;;;
2021/09/28 16:33:13;;;;;;;6.80;3.20;;;;;;;13.30;51.48;101024.81;112347;1209;108880;-74
2021/09/28 16:36:54;;;;;;;;;;;;;;;;;;;;;
2021/09/28 16:40:50;;;;;;;;;;;;;;;;;;;;;
2021/09/28 16:48:00;;;;;;;;;;;;;;;;;;;;;
2021/09/28 16:52:04;;;;;;;;;;;;;;;;;;;;;
2021/09/28 16:56:29;;;;;;;8.80;3.80;;;;;;;12.99;52.74;101040.90;112047;1215;94739;-74
2021/09/28 17:03:56;;;;;;;8.00;3.60;;;;;;;12.90;53.22;101050.05;112165;1214;108130;-74
2021/09/28 17:08:02;;;;;;;6.00;3.70;;;;;;;12.86;53.28;101051.56;112195;1212;107225;-74
2021/09/28 17:12:13;;;;;;;6.20;3.70;;;;;;;12.83;53.41;101057.27;112341;1209;107430;-75
2021/09/28 17:19:56;;;;;;;;;;;;;;;;;;;;;
2021/09/28 17:23:45;;;;;;;5.30;3.60;;;;;;;12.71;53.91;101060.37;112296;1212;110390;-74
2021/09/28 17:44:39;;;;;;;5.90;3.80;;;;;;;12.51;55.01;101064.60;111999;1217;109321;-75
2021/09/28 17:48:30;;;;;;;;;;;;;;;;;;;;;
2021/09/28 17:51:59;;;;;;;;;;;;;;;;;;;;;
2021/09/28 17:59:56;;;;;;;;;;;;;;;;;;;;;
2021/09/28 18:04:27;;;;;;;7.60;4.50;;;;;;;12.37;55.84;101063.56;111838;1215;110556;-74
2021/09/28 18:08:31;;;;;;;6.20;4.40;;;;;;;12.37;56.11;101064.63;112072;1212;108380;-75
2021/09/28 18:12:37;;;;;;;11.40;5.30;;;;;;;12.34;56.34;101062.78;112145;1214;109410;-75
2021/09/28 18:24:46;;;;;;;7.90;4.90;;;;;;;12.18;56.66;101065.98;112012;1217;107268;-75
2021/09/28 18:28:47;;;;;;;8.00;5.00;;;;;;;12.14;56.62;101072.91;112186;1209;635779;-74
2021/09/28 18:32:45;;;;;;;;;;;;;;;;;;;;;
2021/09/28 18:36:58;;;;;;;8.40;5.30;;;;;;;12.01;57.29;101077.91;112867;1204;93928;-74
2021/09/28 18:44:57;;;;;;;;;;;;;;;11.92;57.41;101092.46;112562;1207;107216;-75
2021/09/28 19:05:52;;;;;;;;;;;;;;;;;;;;;
2021/09/28 19:14:30;;;;;;;8.50;5.70;;;;;;;11.59;57.79;101097.55;111819;1218;94864;-73
2021/09/28 19:18:34;;;;;;;10.20;6.10;;;;;;;11.53;57.97;101099.25;111935;1217;95057;-75
2021/09/28 19:22:40;;;;;;;8.50;6.00;;;;;;;11.49;58.07;101094.64;111881;1219;110490;-74
2021/09/28 19:26:45;;;;;;;8.50;6.00;;;;;;;11.45;58.35;101098.54;111630;1221;105073;-74
2021/09/28 19:30:55;;;;;;;10.60;6.40;;;;;;;11.40;58.54;101100.59;111460;1222;109524;-75
2021/09/28 19:39:01;;;;;;;;;;;;;;;;;;;;;
2021/09/28 19:43:11;;;;;;;8.10;5.80;;;;;;;11.29;59.21;101108.13;112658;1204;93860;-74
2021/09/28 19:47:20;;;;;;;10.00;6.00;;;;;;;11.24;59.31;101106.67;112564;1206;106815;-74
2021/09/28 19:51:32;;;;;;;6.50;5.00;;;;;;;11.18;59.51;101108.20;112337;1209;107518;-74
2021/09/28 20:36:55;;;;;;;10.50;6.70;;;;;;;10.73;61.80;101104.03;112843;1206;109514;-74
2021/09/28 20:44:47;;;;;;;9.60;6.70;;;;;;;10.65;61.76;101107.16;113167;1200;94897;-74
2021/09/28 20:48:55;;;;;;;11.90;7.00;;;;;;;10.61;62.13;101110.55;112920;1203;109661;-75
2021/09/28 20:53:28;;;;;;;11.30;7.40;;;;;;;10.57;62.44;101107.80;112518;1206;107366;-74
2021/09/28 20:57:37;;;;;;;10.80;7.40;;;;;;;10.51;62.53;101101.85;112293;1209;108544;-74
2021/09/28 21:06:04;;;;;;;10.30;7.10;;;;;;;10.42;62.70;101100.29;112090;1215;94971;-74
2021/09/28 21:14:05;;;;;;;10.00;7.30;;;;;;;10.31;63.65;101103.61;111895;1219;107996;-74
2021/09/28 21:18:11;;;;;;;12.40;7.60;;;;;;;10.26;63.60;101105.60;111890;1219;109375;-74
2021/09/28 21:26:23;;;;;;;11.20;7.20;;;;;;;10.19;63.60;101103.42;111932;1211;637533;-73
2021/09/28 21:30:57;;;;;;;14.80;8.40;;;;;;;10.16;64.02;101107.47;113230;1200;93958;-73
2021/09/28 21:34:43;;;;;;;11.60;7.90;;;;;;;10.12;64.58;101113.10;112983;1203;93922;-74
2021/09/28 21:38:50;;;;;;;16.30;8.40;;;;;;;10.09;64.42;101111.77;112549;1207;107120;-74
2021/09/28 21:55:55;;;;;;;13.70;8.00;;;;;;;9.98;65.24;101113.50;111993;1218;93864;-74
2021/09/28 22:07:57;;;;;;;13.00;8.40;;;;;;;9.88;65.23;101112.08;111964;1209;636755;-75
2021/09/28 22:15:51;;;;;;;12.40;8.20;;;;;;;9.77;66.32;101124.59;113011;1203;93903;-75
2021/09/28 22:20:00;;;;;;;12.70;8.70;;;;;;;9.72;66.33;101127.81;112524;1206;108199;-75
2021/09/28 22:24:10;;;;;;;12.50;8.30;;;;;;;9.68;66.76;101128.52;112449;1209;107188;-75
2021/09/28 22:36:54;;;;;;;11.30;7.80;;;;;;;9.54;67.30;101122.15;111976;1218;93875;-75
2021/09/28 22:48:35;;;;;;;10.80;7.60;;;;;;;9.44;67.78;101126.98;113144;1199;93897;-74
2021/09/28 22:52:44;;;;;;;13.00;8.40;;;;;;;9.38;67.68;101126.19;112978;1203;93991;-74
2021/09/28 22:57:16;;;;;;;12.30;8.50;;;;;;;9.35;67.82;101127.97;112548;1206;108282;-74
2021/09/28 23:01:37;;;;;;;11.80;8.40;;;;;;;9.29;68.41;101133.74;112171;1212;106099;-74
2021/09/28 23:18:02;;;;;;;14.60;8.10;;;;;;;9.13;68.94;101124.77;111321;1224;107261;-75
2021/09/28 23:22:07;;;;;;;15.40;8.90;;;;;;;9.09;69.68;101128.11;112007;1209;636303;-74
2021/09/28 23:26:15;;;;;;;11.70;8.30;;;;;;;9.04;69.91;101126.78;113103;1201;93979;-74
2021/09/28 23:30:24;;;;;;;11.40;7.80;;;;;;;9.01;69.78;101128.21;112844;1205;93996;-74
2021/09/28 23:55:42;;;;;;;12.10;8.40;;;;;;;8.88;71.26;101122.80;111888;1219;108875;-74
2021/09/28 23:59:47;;;;;;;13.40;7.80;;;;;;;8.85;71.47;101124.41;111448;1222;106475;-74
